الصفحة الرئيسية
METAR-TAF:

METAR-TAF

مطار :

نالتشيك, روسيا

دائرة عرض: 43-30-46N, خط طول: 043-38-12E, ارتفاع: 445 متر

مراقبة الطقس الحالي

تاريخ ووقت الإصدار 27 دقيقة قبل الساعة 06:00UTC
ريح 2 عقدة من الشمال الشرقي
درجة الحرارة -5°درجة مئوية
الرطوبة 100%
ضغط 1028 hPa
الرؤية: 0500 متر
ضباب مجمِّد

METAR: URMN 290600Z 05001MPS 0500 FZFG VV001 M05/M05 Q1028 R24/010070 TEMPO 0300 FZFG RMK QBB050 MT OBSC OBST OBSC QFE734

زمن: 10:27 (06:27 UTC)

توقعات

تاريخ ووقت الإصدار 1ساعة و 27 دقيقة قبل الساعة 05:00UTC
التوقعات صالحة من29 الساعة 06 UTC إلى 29 الساعة 15 UTC
ريح 6 عقدة من الشرق/الشمال الشرقي تتزايد حتى 16 عقدة
الرؤية: 6000 متر
غيوم مفككة على ارتفاع 1600 قدم
مؤقت
من 29 الساعة 06 UTC إلى 29 الساعة 12 UTC
الرؤية: 0500 متر
ملبد بالغيوم على ارتفاع 200 قدم
ضباب مجمِّد,

TAF: URMN 290500Z 2906/2915 06003G08MPS 6000 BKN016 TEMPO 2906/2912 0500 FZFG OVC002

أرصاد الطقس والتوقعات من أكثر من 4000 مطار (تقارير الطقس للمطار METAR والتنبؤ بالطقس بالمطارTAF).

المحطات المتاحة هي النقط الصفراء والحمراء على الخريطة.

حرك المؤشر فوق النقطة لمعرفة اسم المحطة.

ثم انقر لمعرفة أرصاد وتوقعات الطقس.

لتغيير الخارطة: اضغط على الأزرار الخضراء مع رمز الصليب الأسود للتكبير. على الزر الأخضر مع شرطة للتصغير، أو على الأسهم الخضراء للخرائط المجاورة.


METAR-TAF: